Latest Weather Observations for Merimbula

IDN60801

Issued at 12:08 pm EDT Sunday 7 February 2016 (issued every 30 minutes, with the page automatically refreshed every 10 minutes)

About weather observations | Map of weather stations | Latest weather observations for NSW | Other Formats
Station Details ID: 069147 Name: MERIMBULA AIRPORT AWS Lat: -36.91 Lon: 149.90 Height: 1.5 m
Data from the previous 72 hours. | See also: Recent months at Merimbula
Date/Time
EDT
Temp
°C
App
Temp
°C
Dew
Point
Rel
Hum
%
Delta-T
°C
Wind Press
QNH
hPa
Press
MSL
hPa
Rain
since 9 am
mm
Dir
 
Spd
km/h
Gust
km/h
Spd
kts
Gust
kts
07/11:30am 23.8 22.2 15.0 57 5.2 NE 17 26 9 14 1017.4 1017.4 0.0
07/11:00am 23.5 22.0 15.3 60 4.9 NE 17 28 9 15 1017.7 1017.7 0.0
07/10:30am 23.8 23.4 15.3 59 5.1 N 11 17 6 9 1017.8 1017.8 0.0
07/10:00am 23.1 21.8 13.8 55 5.4 N 13 20 7 11 1017.8 1017.8 0.0
07/09:30am 22.4 21.2 14.0 59 4.9 N 13 20 7 11 1017.9 1017.9 0.0
07/09:00am 21.3 21.3 15.2 68 3.6 NW 9 15 5 8 1018.0 1018.0 0.2
07/08:30am 19.8 19.4 15.2 75 2.7 NW 11 15 6 8 1018.1 1018.1 0.2
07/08:00am 17.6 17.5 15.0 85 1.5 W 9 11 5 6 1018.0 1018.0 0.2
07/07:30am 16.0 17.6 15.0 94 0.6 CALM 0 0 0 0 1018.0 1018.0 0.2
07/07:00am 14.5 14.0 13.7 95 0.4 SW 9 11 5 6 1018.0 1018.0 0.2
07/06:30am 13.9 14.8 13.0 94 0.5 CALM 0 0 0 0 1017.7 1017.7 0.2
07/06:00am 13.6 14.3 12.3 92 0.7 CALM 0 0 0 0 1017.5 1017.5 0.2
07/05:30am 14.4 15.4 13.1 92 0.7 CALM 0 0 0 0 1017.3 1017.3 0.2
07/05:00am 14.4 15.3 12.8 90 0.9 CALM 0 0 0 0 1017.3 1017.3 0.2
07/04:30am 15.0 16.0 13.2 89 1.0 CALM 0 0 0 0 1017.4 1017.4 0.2
07/04:00am 16.0 15.6 14.2 89 1.0 NW 9 11 5 6 1017.3 1017.3 0.2
07/03:30am 16.5 15.9 14.5 88 1.1 NW 11 13 6 7 1017.5 1017.5 0.2
07/03:00am 17.3 17.1 14.8 85 1.4 NW 9 13 5 7 1017.6 1017.6 0.2
07/02:47am 17.7 17.9 14.8 83 1.7 NW 7 11 4 6 1017.7 1017.7 0.2
07/02:30am 18.3 19.8 14.6 79 2.1 CALM 0 0 0 0 1017.8 1017.8 0.2
07/02:28am 18.3 19.7 14.4 78 2.2 CALM 0 0 0 0 1017.8 1017.8 0.2
07/02:00am 19.4 19.7 15.1 76 2.5 NNW 7 9 4 5 1018.0 1018.0 0.2
07/01:30am 19.7 19.4 14.3 71 3.1 N 9 15 5 8 1018.3 1018.3 0.2
07/01:00am 20.0 19.8 14.6 71 3.1 N 9 13 5 7 1018.6 1018.6 0.2
07/12:30am 20.1 19.9 14.7 71 3.2 N 9 15 5 8 1018.8 1018.8 0.2
07/12:00am 20.2 20.0 14.8 71 3.2 N 9 13 5 7 1018.9 1018.9 0.2
 
Date/Time
EDT
Temp
°C
App
Temp
°C
Dew
Point
Rel
Hum
%
Delta-T
°C
Wind Press
QNH
hPa
Press
MSL
hPa
Rain
since 9 am
mm
Dir
 
Spd
km/h
Gust
km/h
Spd
kts
Gust
kts
06/11:30pm 20.3 20.1 14.7 70 3.3 N 9 13 5 7 1019.0 1019.0 0.2
06/11:00pm 20.6 20.3 14.5 68 3.6 NNE 9 13 5 7 1019.1 1019.1 0.2
06/10:30pm 20.6 19.9 14.3 67 3.7 NE 11 17 6 9 1019.2 1019.2 0.2
06/10:00pm 21.0 20.0 14.6 67 3.7 NE 13 20 7 11 1019.1 1019.1 0.2
06/09:30pm 20.8 20.2 14.7 68 3.6 NE 11 15 6 8 1018.9 1018.9 0.2
06/09:00pm 20.9 19.9 14.5 67 3.7 NE 13 19 7 10 1018.8 1018.8 0.2
06/08:30pm 20.9 20.6 14.3 66 3.8 NE 9 17 5 9 1018.6 1018.6 0.2
06/08:00pm 20.9 20.1 14.1 65 3.9 NE 11 17 6 9 1018.5 1018.5 0.2
06/07:30pm 21.1 20.3 14.0 64 4.1 ENE 11 17 6 9 1018.2 1018.2 0.2
06/07:00pm 21.7 21.0 14.4 63 4.3 ENE 11 17 6 9 1018.3 1018.3 0.2
06/06:30pm 21.8 20.4 14.4 63 4.3 ENE 15 20 8 11 1018.0 1018.0 0.2
06/06:00pm 22.3 21.0 14.7 62 4.5 ENE 15 20 8 11 1018.0 1018.0 0.2
06/05:30pm 22.5 21.1 14.6 61 4.7 ENE 15 22 8 12 1017.9 1017.9 0.2
06/05:00pm 22.7 21.3 14.5 60 4.8 ENE 15 22 8 12 1017.9 1017.9 0.2
06/04:30pm 23.3 21.4 15.1 60 4.9 ENE 19 26 10 14 1018.0 1018.0 0.2
06/04:00pm 23.7 22.4 14.7 57 5.3 ENE 15 22 8 12 1018.0 1018.0 0.2
06/03:30pm 23.8 22.2 15.0 57 5.3 ENE 17 22 9 12 1018.3 1018.3 0.2
06/03:00pm 24.1 23.2 15.9 60 5.0 ENE 15 20 8 11 1018.5 1018.5 0.2
06/02:30pm 23.7 22.9 15.2 59 5.1 ENE 13 20 7 11 1018.8 1018.8 0.2
06/02:00pm 23.9 22.5 14.6 56 5.5 NE 15 22 8 12 1019.0 1019.0 0.2
06/01:30pm 24.0 23.1 15.8 60 5.0 ENE 15 24 8 13 1019.2 1019.2 0.2
06/01:00pm 24.0 23.9 17.0 65 4.3 ENE 13 20 7 11 1019.5 1019.5 0.2
06/12:30pm 23.6 23.9 16.1 62 4.6 ENE 9 15 5 8 1019.8 1019.8 0.2
06/12:00pm 22.7 22.9 14.8 61 4.7 NNE 7 11 4 6 1020.1 1020.1 0.2
06/11:30am 23.4 23.7 16.0 63 4.5 E 9 13 5 7 1020.2 1020.2 0.2
06/11:00am 22.9 24.8 15.7 64 4.3 CALM 0 6 0 3 1020.3 1020.3 0.2
06/10:30am 21.8 23.8 15.9 69 3.5 CALM 0 0 0 0 1020.5 1020.5 0.0
06/10:00am 20.5 23.0 17.3 82 2.0 CALM 0 0 0 0 1020.5 1020.5 0.0
06/09:30am 19.7 22.3 17.5 87 1.3 CALM 0 0 0 0 1020.5 1020.5 0.0
06/09:00am 19.0 21.4 17.1 89 1.1 CALM 0 0 0 0 1020.4 1020.4 2.2
06/08:30am 18.4 20.4 16.9 91 0.9 WSW 2 6 1 3 1020.4 1020.4 2.2
06/08:00am 17.8 19.3 16.7 93 0.7 W 4 7 2 4 1020.3 1020.3 2.2
06/07:30am 17.5 18.0 16.5 94 0.6 WNW 9 11 5 6 1020.1 1020.1 2.2
06/07:00am 17.2 17.6 16.2 94 0.6 WNW 9 11 5 6 1019.9 1019.9 2.2
06/06:30am 17.0 17.4 16.2 95 0.5 WNW 9 13 5 7 1019.7 1019.7 2.2
06/06:11am 16.9 16.8 15.9 94 0.6 WNW 11 13 6 7 1019.6 1019.6 2.2
06/06:08am 16.9 16.8 15.9 94 0.6 WNW 11 13 6 7 1019.6 1019.6 2.2
06/06:00am 17.0 17.3 16.0 94 0.6 WNW 9 13 5 7 1019.6 1019.6 2.2
06/05:48am 17.0 19.0 16.0 94 0.6 CALM 0 0 0 0 1019.7 1019.7 2.2
06/05:30am 16.7 18.6 15.7 94 0.6 CALM 0 0 0 0 1019.7 1019.7 2.0
06/05:27am 16.8 18.7 15.8 94 0.6 CALM 0 0 0 0 1019.6 1019.6 2.0
06/05:00am 16.8 17.4 15.8 94 0.6 WNW 7 9 4 5 1019.4 1019.4 2.0
06/04:30am 16.4 16.8 15.3 93 0.6 WNW 7 11 4 6 1019.5 1019.5 2.0
06/04:00am 16.6 17.1 15.5 93 0.6 WNW 7 11 4 6 1019.6 1019.6 2.0
06/03:30am 16.9 17.1 15.8 93 0.6 WNW 9 11 5 6 1019.8 1019.8 2.0
06/03:00am 17.1 17.4 16.0 93 0.6 WNW 9 11 5 6 1020.0 1020.0 2.0
06/02:30am 17.2 17.9 16.1 93 0.7 W 7 11 4 6 1020.3 1020.3 1.8
06/02:11am 17.2 17.8 15.9 92 0.8 SW 7 9 4 5 1020.5 1020.5 1.8
06/02:00am 17.3 18.0 16.0 92 0.8 W 7 11 4 6 1020.7 1020.7 1.8
06/01:54am 17.4 18.1 16.1 92 0.8 WNW 7 11 4 6 1020.7 1020.7 1.8
06/01:52am 17.4 18.1 16.1 92 0.8 WNW 7 11 4 6 1020.7 1020.7 1.8
06/01:46am 17.4 18.3 16.1 92 0.8 W 6 7 3 4 1020.8 1020.8 1.8
06/01:30am 17.5 18.2 16.2 92 0.8 SW 7 9 4 5 1020.9 1020.9 1.8
06/01:25am 17.5 18.4 16.0 91 0.9 SSW 6 9 3 5 1021.0 1021.0 1.6
06/01:20am 17.5 19.1 16.0 91 0.9 SW 2 9 1 5 1021.1 1021.1 1.0
06/01:00am 17.5 18.1 15.7 89 1.1 WNW 7 9 4 5 1021.0 1021.0 1.0
06/12:56am 17.5 18.1 15.7 89 1.1 WNW 7 9 4 5 1021.0 1021.0 1.0
06/12:36am 17.8 18.6 15.8 88 1.2 WSW 6 7 3 4 1021.3 1021.3 0.6
06/12:30am 17.7 18.4 15.5 87 1.3 WSW 6 11 3 6 1021.4 1021.4 0.2
06/12:00am 17.6 18.8 15.8 89 1.1 W 4 13 2 7 1021.4 1021.4 0.2
 
Date/Time
EDT
Temp
°C
App
Temp
°C
Dew
Point
Rel
Hum
%
Delta-T
°C
Wind Press
QNH
hPa
Press
MSL
hPa
Rain
since 9 am
mm
Dir
 
Spd
km/h
Gust
km/h
Spd
kts
Gust
kts
05/11:30pm 17.6 18.4 15.9 90 1.0 WNW 6 9 3 5 1021.6 1021.6 0.2
05/11:00pm 17.8 18.1 16.1 90 1.0 W 9 11 5 6 1021.8 1021.8 0.2
05/10:30pm 17.9 18.8 16.2 90 1.0 W 6 9 3 5 1021.9 1021.9 0.2
05/10:07pm 18.3 19.2 16.6 90 1.0 WSW 7 11 4 6 1022.0 1022.0 0.2
05/10:00pm 18.3 19.2 16.6 90 1.0 SSW 7 11 4 6 1022.1 1022.1 0.2
05/09:59pm 18.3 19.2 16.6 90 1.0 SSW 7 11 4 6 1022.1 1022.1 0.2
05/09:49pm 18.4 19.3 16.6 89 1.1 S 7 13 4 7 1022.1 1022.1 0.2
05/09:34pm 18.7 19.6 16.5 87 1.3 S 7 9 4 5 1021.9 1021.9 0.0
05/09:30pm 18.7 19.5 16.3 86 1.4 S 7 13 4 7 1021.8 1021.8 0.0
05/09:13pm 19.0 19.4 16.4 85 1.6 S 9 15 5 8 1021.6 1021.6 0.0
05/09:00pm 19.2 19.3 16.4 84 1.7 SSE 11 19 6 10 1021.4 1021.4 0.0
05/08:56pm 19.3 18.9 16.2 82 1.9 SE 13 22 7 12 1021.4 1021.4 0.0
05/08:30pm 20.1 20.3 15.7 76 2.6 SE 9 19 5 10 1021.0 1021.0 0.0
05/08:00pm 20.5 20.7 14.8 70 3.3 S 7 9 4 5 1020.9 1020.9 0.0
05/07:30pm 20.9 21.2 15.9 73 3.0 SE 9 15 5 8 1020.7 1020.7 0.0
05/07:00pm 20.9 20.0 15.9 73 3.0 SE 15 26 8 14 1020.5 1020.5 0.0
05/06:30pm 21.1 20.0 15.4 70 3.4 ESE 15 26 8 14 1020.4 1020.4 0.0
05/06:00pm 21.6 20.3 15.9 70 3.4 SE 17 30 9 16 1020.4 1020.4 0.0
05/05:30pm 22.3 20.9 14.4 61 4.6 SE 15 20 8 11 1020.5 1020.5 0.0
05/05:00pm 22.9 20.8 14.7 60 4.8 SE 19 28 10 15 1020.5 1020.5 0.0
05/04:30pm 22.3 20.3 14.9 63 4.4 SE 19 30 10 16 1020.6 1020.6 0.0
05/04:00pm 21.9 19.9 15.5 67 3.8 SE 20 32 11 17 1020.7 1020.7 0.0
05/03:30pm 22.6 20.1 15.2 63 4.4 SE 22 32 12 17 1020.7 1020.7 0.0
05/03:00pm 23.5 20.8 14.5 57 5.3 SE 22 32 12 17 1020.8 1020.8 0.0
05/02:30pm 22.4 20.8 14.0 59 4.9 SE 15 22 8 12 1021.0 1021.0 0.0
05/02:00pm 22.6 22.4 15.7 65 4.1 SSW 11 19 6 10 1021.1 1021.1 0.0
05/01:30pm 21.7 21.3 15.1 66 3.9 SSE 11 17 6 9 1021.5 1021.5 0.0
05/01:01pm 20.7 21.0 15.9 74 2.9 S 9 20 5 11 1021.8 1021.8 0.0
05/01:00pm 20.9 21.5 16.9 78 2.4 S 9 17 5 9 1021.8 1021.8 0.0
05/12:45pm 19.5 18.9 15.6 78 2.3 SSE 13 24 7 13 1022.0 1022.0 0.0
05/12:34pm 20.1 20.2 15.5 75 2.7 SW 9 13 5 7 1021.9 1021.9 0.0
05/12:30pm 20.2 20.4 15.8 76 2.6 SW 9 13 5 7 1021.9 1021.9 0.0
05/12:06pm 20.7 20.7 16.3 76 2.6 ESE 11 19 6 10 1022.1 1022.1 0.0
05/12:00pm 21.2 21.8 15.7 71 3.3 E 7 19 4 10 1022.0 1022.0 0.0
05/11:30am 21.3 20.3 14.5 65 4.0 SSE 13 24 7 13 1022.2 1022.2 0.0
05/11:00am 20.7 18.9 13.2 62 4.3 SSE 15 24 8 13 1022.2 1022.2 0.0
05/10:30am 20.9 20.1 14.1 65 3.9 SSW 11 17 6 9 1021.9 1021.9 0.0
05/10:00am 20.5 19.7 13.9 66 3.8 SW 11 20 6 11 1021.7 1021.7 0.0
05/09:30am 20.1 18.8 13.8 67 3.6 SW 13 19 7 10 1021.5 1021.5 0.0
05/09:00am 19.5 17.9 13.9 70 3.2 SW 15 20 8 11 1021.3 1021.3 0.2
05/08:30am 18.8 17.4 13.4 71 3.1 SSW 13 20 7 11 1021.2 1021.2 -
05/08:00am 18.5 17.8 13.1 71 3.0 SSW 9 17 5 9 1021.0 1021.0 -
05/07:30am 18.2 17.5 13.1 72 2.9 WSW 9 17 5 9 1020.6 1020.6 -
05/07:00am 18.0 16.9 13.1 73 2.7 SW 11 19 6 10 1020.4 1020.4 -
05/06:30am 17.5 17.0 12.6 73 2.7 SW 7 11 4 6 1020.0 1020.0 -
05/06:00am 17.2 18.0 12.5 74 2.6 CALM 0 11 0 6 1019.6 1019.6 -
05/05:30am 17.0 17.8 12.5 75 2.5 CALM 0 0 0 0 1019.2 1019.2 -
05/05:00am 16.9 17.7 12.4 75 2.5 CALM 0 0 0 0 1019.1 1019.1 -
05/04:30am 16.8 16.3 12.5 76 2.4 WSW 7 11 4 6 1019.0 1019.0 -
05/04:00am 16.5 15.5 12.3 76 2.3 W 9 15 5 8 1019.1 1019.1 -
05/03:30am 15.9 16.6 12.3 79 2.0 CALM 0 0 0 0 1019.1 1019.1 -
05/03:00am 15.9 14.8 12.1 78 2.1 WSW 9 13 5 7 1019.1 1019.1 0.0
05/02:30am 15.8 15.0 11.8 77 2.2 SW 7 11 4 6 1019.2 1019.2 -
05/02:00am 16.1 15.0 12.1 77 2.2 SW 9 15 5 8 1019.6 1019.6 -
05/01:30am 16.3 15.6 12.1 76 2.3 SW 7 13 4 7 1019.7 1019.7 -
05/01:00am 16.3 15.2 11.9 75 2.4 SW 9 13 5 7 1019.7 1019.7 -
05/12:30am 16.9 15.8 11.8 72 2.8 SW 9 17 5 9 1019.9 1019.9 -
05/12:00am 17.4 16.0 12.1 71 2.9 SW 11 15 6 8 1020.0 1020.0 -
 
Date/Time
EDT
Temp
°C
App
Temp
°C
Dew
Point
Rel
Hum
%
Delta-T
°C
Wind Press
QNH
hPa
Press
MSL
hPa
Rain
since 9 am
mm
Dir
 
Spd
km/h
Gust
km/h
Spd
kts
Gust
kts
04/11:30pm 17.9 16.0 11.9 68 3.3 SW 13 17 7 9 1020.1 1020.1 -
04/11:00pm 18.0 16.6 12.2 69 3.2 SW 11 17 6 9 1020.2 1020.2 -
04/10:30pm 18.0 16.5 12.0 68 3.3 SW 11 17 6 9 1020.2 1020.2 -
04/10:00pm 17.8 16.0 12.0 69 3.2 SW 13 17 7 9 1020.2 1020.2 -
04/09:30pm 17.8 16.3 12.0 69 3.2 SW 11 17 6 9 1020.1 1020.1 -
04/09:00pm 18.2 16.3 11.7 66 3.6 SSW 13 20 7 11 1019.7 1019.7 0.0
04/08:30pm 18.5 17.0 11.8 65 3.7 SSW 11 17 6 9 1019.4 1019.4 -
04/08:00pm 19.4 16.2 11.4 60 4.4 SSE 19 30 10 16 1019.1 1019.1 -
04/07:30pm 20.5 16.8 11.4 56 5.0 S 22 35 12 19 1018.6 1018.6 -
04/07:00pm 21.5 18.3 11.8 54 5.4 S 20 30 11 16 1018.2 1018.2 -
04/06:30pm 22.5 19.5 12.4 52 5.7 S 20 30 11 16 1017.5 1017.5 -
04/06:00pm 22.5 18.1 11.6 50 6.1 S 26 43 14 23 1017.4 1017.4 -
04/05:30pm 22.5 18.2 10.9 48 6.4 SSE 24 39 13 21 1017.1 1017.1 -
04/05:00pm 23.4 19.7 12.7 51 6.1 SSE 24 39 13 21 1017.0 1017.0 -
04/04:30pm 22.6 19.5 14.4 60 4.8 SSE 24 39 13 21 1016.8 1016.8 -
04/04:03pm 22.3 18.5 14.7 62 4.5 SE 28 46 15 25 1016.7 1016.7 -
04/04:00pm 22.1 18.2 14.5 62 4.5 SE 28 43 15 23 1016.7 1016.7 -
04/03:50pm 21.9 17.5 14.0 61 4.6 SE 30 48 16 26 1016.7 1016.7 -
04/03:30pm 21.8 17.7 14.9 65 4.1 SE 30 44 16 24 1016.7 1016.7 -
04/03:00pm 21.7 18.0 15.1 66 3.9 SE 28 41 15 22 1016.8 1016.8 -
04/02:30pm 22.4 18.7 16.0 67 3.9 SE 30 46 16 25 1016.8 1016.8 -
04/02:00pm 22.6 20.6 15.4 64 4.3 SE 20 33 11 18 1016.9 1016.9 -
04/01:30pm 23.6 22.7 14.9 58 5.2 SSE 13 26 7 14 1016.9 1016.9 -
04/01:00pm 22.3 19.6 12.8 55 5.4 S 19 28 10 15 1017.1 1017.1 -
04/12:30pm 23.0 21.0 14.0 57 5.3 S 17 30 9 16 1017.3 1017.3 -

Other Formats:

Comma delimited format used in spreadsheet applications
http://www.bom.gov.au/fwo/IDN60801/IDN60801.95929.axf

JavaScript Object Notation format (JSON) in row-major order
http://www.bom.gov.au/fwo/IDN60801/IDN60801.95929.json